createdAt,value
2018-05-06T00:11:02.237Z,33.70
2018-05-06T00:16:53.330Z,34.20
2018-05-06T00:19:21.933Z,33.70
2018-05-06T00:43:03.991Z,34.40
2018-05-06T00:45:31.154Z,34.60
2018-05-06T00:48:21.510Z,34.50
2018-05-06T00:53:51.387Z,34.70
2018-05-06T00:56:21.139Z,34.80
2018-05-06T00:58:47.765Z,35.00
2018-05-06T01:03:58.591Z,35.10
2018-05-06T01:09:29.856Z,35.10
2018-05-06T01:12:03.471Z,35.30
2018-05-06T01:14:37.921Z,35.30
2018-05-06T01:17:06.096Z,35.40
2018-05-06T01:19:37.160Z,35.40
2018-05-06T01:22:23.713Z,35.20
2018-05-06T01:24:50.029Z,35.60
2018-05-06T01:33:06.908Z,36.50
2018-05-06T01:35:58.266Z,36.00
2018-05-06T01:38:24.729Z,35.90
2018-05-06T01:44:07.463Z,36.40
2018-05-06T01:46:40.160Z,36.00
2018-05-06T01:52:20.899Z,35.80
2018-05-06T01:54:52.696Z,35.70
2018-05-06T01:57:20.300Z,35.80
2018-05-06T02:12:06.466Z,36.10
2018-05-06T02:17:45.404Z,36.00
2018-05-06T02:23:16.098Z,36.00
2018-05-06T02:41:01.624Z,35.90
2018-05-06T02:46:43.575Z,36.30
2018-05-06T02:49:13.702Z,35.80
2018-05-06T02:54:43.256Z,36.40
2018-05-06T02:57:15.037Z,35.80
2018-05-06T02:59:41.555Z,35.80
2018-05-06T03:05:20.919Z,35.70
2018-05-06T03:10:40.417Z,35.70
2018-05-06T04:09:59.664Z,40.00
2018-05-06T04:12:25.960Z,39.90
2018-05-06T04:14:52.445Z,40.10
2018-05-06T04:17:18.755Z,39.90
2018-05-06T04:19:45.858Z,39.80
2018-05-06T04:22:12.906Z,40.20
2018-05-06T04:24:39.192Z,40.10
2018-05-06T04:27:05.666Z,39.80
2018-05-06T04:29:31.956Z,40.10
2018-05-06T04:31:58.456Z,39.10
2018-05-06T04:34:26.213Z,39.10
2018-05-06T04:36:52.594Z,39.50
2018-05-06T04:39:18.939Z,39.40
2018-05-06T04:41:45.750Z,40.20
2018-05-06T04:44:12.452Z,39.20
2018-05-06T04:46:38.738Z,38.80
2018-05-06T04:49:05.660Z,38.00
2018-05-06T04:51:31.998Z,37.70
2018-05-06T04:53:58.417Z,38.00
2018-05-06T04:56:33.058Z,37.20
2018-05-06T04:58:59.373Z,37.10
2018-05-06T05:01:32.927Z,36.80
2018-05-06T05:03:59.689Z,36.30
2018-05-06T05:06:37.260Z,36.70
2018-05-06T05:09:10.826Z,36.80
2018-05-06T05:11:41.353Z,35.60
2018-05-06T05:14:14.849Z,35.60
2018-05-06T05:16:44.890Z,35.70
2018-05-06T05:19:15.510Z,35.80
2018-05-06T05:21:43.636Z,35.90
2018-05-06T05:24:11.541Z,35.70
2018-05-06T05:26:45.822Z,35.70
2018-05-06T05:29:26.163Z,35.60
2018-05-06T05:31:55.971Z,35.10
2018-05-06T05:34:42.045Z,34.60
2018-05-06T05:37:10.098Z,34.20
2018-05-06T05:39:36.771Z,33.80
2018-05-06T05:42:03.351Z,33.90
2018-05-06T05:44:29.734Z,33.90
2018-05-06T05:46:59.235Z,32.50
2018-05-06T05:49:27.501Z,31.40
2018-05-06T05:51:57.303Z,31.90
2018-05-06T05:54:26.636Z,31.70
2018-05-06T05:57:01.121Z,31.10
2018-05-06T05:59:28.380Z,30.50
2018-05-06T06:02:02.017Z,30.10
2018-05-06T06:04:44.500Z,30.00
2018-05-06T06:07:10.988Z,30.00
2018-05-06T06:09:41.334Z,29.40
2018-05-06T06:15:14.417Z,29.60
2018-05-06T06:17:46.861Z,28.10
2018-05-06T06:20:23.342Z,28.60
2018-05-06T06:25:30.531Z,28.00
2018-05-06T06:28:00.324Z,28.00
2018-05-06T06:30:47.548Z,28.00
2018-05-06T06:33:15.572Z,27.30
2018-05-06T06:35:43.337Z,27.30
2018-05-06T06:44:27.192Z,26.30
2018-05-06T06:46:55.506Z,25.80
2018-05-06T06:49:25.226Z,26.20
2018-05-06T06:52:00.520Z,26.10
2018-05-06T06:54:35.100Z,25.60
2018-05-06T06:57:04.876Z,25.70
2018-05-06T06:59:31.720Z,24.70
2018-05-06T07:02:04.867Z,25.50
2018-05-06T07:04:51.939Z,26.40
2018-05-06T07:07:18.978Z,25.80
2018-05-06T07:12:52.056Z,24.60
2018-05-06T07:15:18.919Z,24.00
2018-05-06T07:17:47.966Z,25.00
2018-05-06T07:20:30.212Z,24.10
2018-05-06T07:22:58.036Z,24.50
2018-05-06T07:25:28.160Z,24.50
2018-05-06T07:27:54.988Z,24.20
2018-05-06T07:30:21.644Z,23.90
2018-05-06T07:32:49.919Z,23.40
2018-05-06T11:02:09.466Z,12.50
2018-05-06T11:04:36.413Z,12.20
2018-05-06T11:07:06.008Z,12.50
2018-05-06T11:09:32.348Z,11.00
2018-05-06T11:11:58.691Z,11.20
2018-05-06T11:14:25.734Z,10.50
2018-05-06T11:16:51.995Z,11.60
2018-05-06T11:19:37.661Z,10.40
2018-05-06T11:22:13.161Z,11.20
2018-05-06T11:24:42.770Z,10.30
2018-05-06T11:27:09.661Z,10.20
2018-05-06T11:29:35.955Z,10.50
2018-05-06T11:32:03.945Z,10.30
2018-05-06T11:34:32.745Z,10.00
2018-05-06T11:37:10.882Z,10.40
2018-05-06T11:39:40.544Z,10.70
2018-05-06T11:51:40.151Z,10.20
2018-05-06T11:54:09.887Z,9.40
2018-05-06T11:56:39.630Z,10.70
2018-05-06T11:59:12.515Z,10.30
2018-05-06T12:01:41.000Z,9.30
2018-05-06T12:04:11.430Z,9.20
2018-05-06T12:06:39.847Z,10.30
2018-05-06T12:09:06.862Z,10.60
2018-05-06T12:11:33.190Z,9.00
2018-05-06T12:14:04.171Z,10.20
2018-05-06T12:16:35.784Z,9.90
2018-05-06T12:19:06.912Z,9.80
2018-05-06T12:21:33.259Z,9.10
2018-05-06T12:23:59.919Z,9.00
2018-05-06T12:26:26.840Z,8.60
2018-05-06T12:28:53.119Z,8.60
2018-05-06T12:31:25.515Z,7.80
2018-05-06T12:33:51.941Z,7.20
2018-05-06T12:36:19.097Z,7.30
2018-05-06T12:38:45.467Z,6.40
2018-05-06T12:41:12.820Z,6.60
2018-05-06T12:43:40.255Z,7.30
2018-05-06T12:46:09.784Z,7.60
2018-05-06T12:48:40.067Z,6.40
2018-05-06T12:51:09.307Z,6.30
2018-05-06T12:53:35.951Z,5.30
2018-05-06T12:58:39.951Z,6.30
2018-05-06T13:01:09.524Z,6.40
2018-05-06T13:03:42.913Z,6.30
2018-05-06T13:06:09.423Z,5.30
2018-05-06T13:08:39.954Z,5.10
2018-05-06T13:11:07.673Z,4.90
2018-05-06T13:16:07.926Z,5.20
2018-05-06T13:18:34.419Z,5.20
2018-05-06T13:21:09.815Z,5.20
2018-05-06T13:23:37.480Z,5.60
2018-05-06T13:26:05.394Z,4.30
2018-05-06T13:28:32.608Z,5.10
2018-05-06T13:30:59.747Z,7.20
2018-05-06T13:33:26.804Z,5.90
2018-05-06T13:36:10.016Z,6.70
2018-05-06T13:38:42.586Z,6.40
2018-05-06T13:41:09.921Z,6.10
2018-05-06T13:43:44.649Z,5.80
2018-05-06T13:46:11.199Z,6.20
2018-05-06T13:51:19.880Z,6.40
2018-05-06T13:53:47.444Z,7.50
2018-05-06T13:56:21.839Z,7.70
2018-05-06T13:59:06.537Z,7.50
2018-05-06T14:01:37.011Z,7.90
2018-05-06T14:09:31.658Z,8.80
2018-05-06T14:17:37.004Z,10.50
2018-05-06T14:20:23.216Z,10.10
2018-05-06T14:23:06.218Z,10.80
2018-05-06T14:25:35.898Z,10.30
2018-05-06T14:28:10.305Z,10.90
2018-05-06T14:36:28.112Z,11.20
2018-05-06T14:38:54.464Z,11.30
2018-05-06T14:41:21.944Z,11.30
2018-05-06T14:43:49.928Z,11.30
2018-05-06T14:46:33.568Z,11.40
2018-05-06T14:48:59.860Z,11.80
2018-05-06T14:51:28.449Z,12.10
2018-05-06T14:54:02.160Z,12.60
2018-05-06T14:56:29.707Z,12.20
2018-05-06T14:58:56.797Z,11.50
2018-05-06T15:01:27.232Z,11.70
2018-05-06T15:03:53.765Z,11.60
2018-05-06T15:09:07.121Z,12.40
2018-05-06T15:11:34.874Z,11.70
2018-05-06T15:14:02.328Z,12.20
2018-05-06T15:16:37.443Z,11.90
2018-05-06T15:19:07.260Z,11.60
2018-05-06T15:21:38.028Z,11.60
2018-05-06T15:26:41.504Z,11.60
2018-05-06T15:29:07.881Z,11.80
2018-05-06T15:31:35.229Z,11.30
2018-05-06T15:34:07.720Z,11.10
2018-05-06T15:36:36.210Z,11.50
2018-05-06T15:39:06.838Z,10.70
2018-05-06T15:44:36.547Z,10.90
2018-05-06T15:47:07.060Z,10.60
2018-05-06T15:52:17.988Z,11.60
2018-05-06T15:54:44.545Z,11.30
2018-05-06T15:57:11.013Z,11.00
2018-05-06T15:59:39.421Z,10.90
2018-05-06T16:02:28.386Z,10.80
2018-05-06T16:07:37.998Z,11.20
2018-05-06T16:13:06.909Z,10.90
2018-05-06T16:15:36.279Z,10.50
2018-05-06T16:18:07.047Z,11.00
2018-05-06T16:23:14.832Z,10.50
2018-05-06T16:25:41.552Z,9.80
2018-05-06T16:28:24.203Z,9.80
2018-05-06T16:30:56.752Z,9.70
2018-05-06T16:33:24.841Z,9.70
2018-05-06T16:35:55.125Z,9.60
2018-05-06T16:38:22.411Z,9.80
2018-05-06T16:43:35.703Z,10.70
2018-05-06T16:46:05.243Z,10.50
2018-05-06T16:48:36.639Z,10.60
2018-05-06T16:51:07.109Z,11.10
2018-05-06T16:53:36.113Z,11.10
2018-05-06T16:56:06.250Z,11.10
2018-05-06T16:58:54.998Z,11.10
2018-05-06T17:01:24.323Z,11.20
2018-05-06T17:03:56.699Z,11.50
2018-05-06T17:09:36.535Z,11.70
2018-05-06T17:15:06.773Z,11.50
2018-05-06T17:23:06.890Z,11.10
2018-05-06T17:25:44.625Z,11.70
2018-05-06T17:28:28.177Z,11.60
2018-05-06T17:31:07.551Z,11.50
2018-05-06T17:33:36.374Z,12.20
2018-05-06T17:36:08.040Z,12.40
2018-05-06T17:38:36.278Z,12.30
2018-05-06T17:44:24.454Z,12.60
2018-05-06T17:46:54.531Z,13.20
2018-05-06T17:49:23.665Z,12.90
2018-05-06T17:51:51.040Z,13.60
2018-05-06T17:54:18.185Z,14.90
2018-05-06T17:59:59.043Z,17.10
2018-05-06T18:02:27.609Z,17.00
2018-05-06T18:04:58.420Z,16.90
2018-05-06T18:07:25.947Z,16.90
2018-05-06T18:09:56.467Z,17.60
2018-05-06T18:12:25.293Z,18.20
2018-05-06T18:14:57.748Z,18.20
2018-05-06T18:17:25.470Z,18.40
2018-05-06T18:19:56.075Z,18.60
2018-05-06T18:22:26.110Z,18.90
2018-05-06T18:24:57.530Z,18.90
2018-05-06T18:27:25.708Z,19.30
2018-05-06T18:29:58.094Z,19.30
2018-05-06T18:32:24.518Z,19.70
2018-05-06T18:34:53.163Z,19.80
2018-05-06T18:37:24.104Z,20.00
2018-05-06T18:39:54.053Z,19.90
2018-05-06T18:42:24.051Z,20.50
2018-05-06T18:45:10.046Z,20.50
2018-05-06T18:47:40.967Z,20.80
2018-05-06T18:53:21.116Z,21.00
2018-05-06T18:55:51.650Z,21.30
2018-05-06T18:58:21.643Z,21.20
2018-05-06T19:00:49.352Z,21.50
2018-05-06T19:03:22.366Z,21.80
2018-05-06T19:05:48.728Z,22.00
2018-05-06T19:08:17.636Z,22.30
2018-05-06T19:10:49.487Z,22.20
2018-05-06T19:13:15.857Z,22.60
2018-05-06T19:15:42.087Z,22.60
2018-05-06T19:18:08.459Z,22.80
2018-05-06T19:20:36.632Z,22.50
2018-05-06T19:23:02.962Z,22.70
2018-05-06T19:25:35.460Z,22.40
2018-05-06T19:28:08.940Z,22.80
2018-05-06T19:30:36.267Z,23.30
2018-05-06T19:33:02.800Z,23.20
2018-05-06T19:35:29.074Z,23.40
2018-05-06T19:40:40.992Z,23.30
2018-05-06T19:43:10.973Z,23.30
2018-05-06T19:45:37.303Z,23.20
2018-05-06T19:48:08.865Z,23.20
2018-05-06T19:50:41.217Z,23.50
2018-05-06T19:53:08.645Z,23.00
2018-05-06T19:55:37.164Z,23.60
2018-05-06T20:00:49.659Z,23.70
2018-05-06T20:03:15.949Z,24.00
2018-05-06T20:05:44.821Z,23.60
2018-05-06T20:08:11.472Z,23.80
2018-05-06T20:10:38.495Z,24.00
2018-05-06T20:13:07.907Z,24.10
2018-05-06T20:15:34.548Z,24.20
2018-05-06T20:18:02.463Z,24.00
2018-05-06T20:20:28.842Z,24.00
2018-05-06T20:22:55.124Z,24.00
2018-05-06T20:25:21.649Z,24.40
2018-05-06T20:27:48.093Z,24.40
2018-05-06T20:30:14.602Z,24.40
2018-05-06T20:32:40.989Z,24.60
2018-05-06T20:35:07.486Z,24.50
2018-05-06T20:37:33.814Z,24.40
2018-05-06T20:40:00.157Z,24.90
2018-05-06T20:42:27.475Z,24.70
2018-05-06T20:44:53.783Z,24.60
2018-05-06T20:47:20.091Z,24.90
2018-05-06T20:49:46.466Z,25.00
2018-05-06T20:52:13.853Z,25.30
2018-05-06T20:54:40.233Z,25.30
2018-05-06T20:57:06.572Z,25.40
2018-05-06T20:59:32.954Z,25.40
2018-05-06T21:02:01.721Z,25.90
2018-05-06T21:04:29.534Z,26.30
2018-05-06T21:06:56.290Z,26.20
2018-05-06T21:09:23.027Z,26.20
2018-05-06T21:11:52.581Z,26.10
2018-05-06T21:14:18.968Z,26.60
2018-05-06T21:16:46.291Z,26.60
2018-05-06T21:19:12.992Z,26.70
2018-05-06T21:21:41.343Z,26.80
2018-05-06T21:24:09.868Z,26.80
2018-05-06T21:26:37.687Z,27.00
2018-05-06T21:29:04.299Z,27.20
2018-05-06T21:31:31.836Z,27.40
2018-05-06T21:33:59.153Z,27.30
2018-05-06T21:36:25.440Z,27.60
2018-05-06T21:38:52.262Z,28.00
2018-05-06T21:41:18.808Z,27.80
2018-05-06T21:43:45.873Z,28.40
2018-05-06T21:46:12.119Z,27.80
2018-05-06T21:48:39.404Z,29.10
2018-05-06T21:51:05.668Z,29.10
2018-05-06T21:53:32.182Z,28.60
2018-05-06T21:55:58.471Z,28.60
2018-05-06T21:58:24.690Z,28.80
2018-05-06T22:00:50.947Z,29.10
2018-05-06T22:03:17.153Z,29.50
2018-05-06T22:05:43.409Z,29.50
2018-05-06T22:08:09.678Z,29.40
2018-05-06T22:10:35.933Z,29.40
2018-05-06T22:13:02.160Z,29.40
2018-05-06T22:15:28.655Z,29.30
2018-05-06T22:17:55.031Z,29.60
2018-05-06T22:20:21.491Z,29.60
2018-05-06T22:22:47.899Z,29.70
2018-05-06T22:25:14.158Z,29.70
2018-05-06T22:27:40.453Z,29.90
2018-05-06T22:30:06.809Z,30.00
2018-05-06T22:32:33.079Z,29.80
2018-05-06T22:35:05.139Z,30.10
2018-05-06T22:37:31.641Z,30.00
2018-05-06T22:39:57.954Z,30.10
2018-05-06T22:42:24.262Z,30.20
2018-05-06T22:44:50.759Z,30.50
2018-05-06T22:47:17.147Z,30.50
2018-05-06T22:49:44.260Z,30.70
2018-05-06T22:52:10.748Z,30.70
2018-05-06T22:54:39.353Z,30.80
2018-05-06T22:57:05.845Z,30.50
2018-05-06T22:59:32.195Z,30.80
2018-05-06T23:01:58.520Z,31.00
2018-05-06T23:04:24.861Z,31.00
2018-05-06T23:06:51.118Z,31.20
2018-05-06T23:09:17.574Z,30.90
2018-05-06T23:11:43.951Z,31.60
2018-05-06T23:14:10.293Z,30.90
2018-05-06T23:16:38.691Z,31.00
2018-05-06T23:19:04.918Z,31.20
2018-05-06T23:21:31.352Z,31.20
2018-05-06T23:23:57.747Z,31.50
2018-05-06T23:26:24.089Z,32.00
2018-05-06T23:28:50.343Z,32.20
2018-05-06T23:31:17.349Z,31.90
2018-05-06T23:33:44.437Z,32.20
2018-05-06T23:36:10.790Z,32.10
2018-05-06T23:38:37.146Z,32.20
2018-05-06T23:41:03.442Z,32.70
2018-05-06T23:43:29.803Z,32.80
2018-05-06T23:45:56.026Z,33.20
2018-05-06T23:48:22.330Z,33.70
2018-05-06T23:50:49.302Z,34.80
2018-05-06T23:53:15.567Z,34.80
2018-05-06T23:55:42.041Z,35.30
2018-05-06T23:58:08.346Z,35.60
